createdAt,value
2019-01-31T00:00:52.085Z,7.00
2019-01-31T00:02:12.998Z,10.10
2019-01-31T00:04:09.861Z,11.28
2019-01-31T00:05:13.680Z,10.95
2019-01-31T00:06:29.781Z,12.53
2019-01-31T00:07:52.251Z,16.87
2019-01-31T00:09:09.223Z,7.72
2019-01-31T00:10:25.797Z,8.80
2019-01-31T00:11:41.892Z,7.72
2019-01-31T00:12:57.775Z,11.75
2019-01-31T00:14:13.534Z,10.68
2019-01-31T00:15:32.376Z,13.18
2019-01-31T00:16:48.988Z,13.50
2019-01-31T00:18:05.202Z,12.53
2019-01-31T00:19:24.085Z,8.08
2019-01-31T00:20:42.656Z,12.10
2019-01-31T00:21:59.109Z,9.93
2019-01-31T00:23:18.083Z,8.43
2019-01-31T00:24:33.962Z,12.93
2019-01-31T00:25:50.634Z,8.53
2019-01-31T00:27:29.591Z,12.40
2019-01-31T00:28:45.602Z,18.60
2019-01-31T00:30:02.114Z,15.28
2019-01-31T00:31:18.009Z,14.63
2019-01-31T00:32:34.168Z,8.90
2019-01-31T00:33:51.109Z,18.32
2019-01-31T00:35:07.063Z,16.00
2019-01-31T00:36:23.155Z,14.33
2019-01-31T00:37:39.560Z,14.38
2019-01-31T00:38:56.886Z,20.90
2019-01-31T00:40:13.721Z,17.45
2019-01-31T00:41:30.014Z,21.75
2019-01-31T00:42:45.869Z,15.80
2019-01-31T00:44:01.826Z,14.98
2019-01-31T00:45:17.800Z,18.82
2019-01-31T00:46:33.670Z,13.28
2019-01-31T00:47:49.911Z,13.78
2019-01-31T00:49:05.822Z,16.25
2019-01-31T00:50:24.203Z,21.82
2019-01-31T00:51:40.887Z,10.82
2019-01-31T00:52:56.978Z,14.20
2019-01-31T00:54:13.575Z,10.80
2019-01-31T00:55:29.442Z,11.30
2019-01-31T00:56:45.837Z,8.43
2019-01-31T00:58:02.665Z,13.28
2019-01-31T00:59:18.920Z,8.95
2019-01-31T01:00:35.113Z,7.95
2019-01-31T01:01:51.613Z,11.48
2019-01-31T01:03:08.052Z,12.93
2019-01-31T01:04:24.002Z,19.15
2019-01-31T01:05:39.775Z,12.35
2019-01-31T01:06:56.228Z,7.95
2019-01-31T01:08:14.846Z,18.32
2019-01-31T01:09:30.949Z,13.65
2019-01-31T01:10:46.969Z,19.92
2019-01-31T01:12:04.541Z,13.62
2019-01-31T01:13:21.488Z,16.02
2019-01-31T01:14:37.497Z,13.25
2019-01-31T01:15:54.200Z,15.78
2019-01-31T01:17:10.382Z,16.73
2019-01-31T01:18:26.692Z,14.53
2019-01-31T01:19:43.363Z,11.53
2019-01-31T01:20:59.459Z,15.75
2019-01-31T01:22:15.315Z,9.18
2019-01-31T01:23:31.680Z,7.83
2019-01-31T01:24:48.053Z,7.97
2019-01-31T01:26:03.980Z,8.33
2019-01-31T01:27:20.083Z,9.10
2019-01-31T01:28:36.342Z,7.95
2019-01-31T01:29:52.863Z,15.68
2019-01-31T01:31:09.078Z,14.85
2019-01-31T01:32:25.049Z,10.13
2019-01-31T01:33:41.570Z,9.98
2019-01-31T01:35:01.293Z,10.60
2019-01-31T01:36:15.524Z,13.00
2019-01-31T01:37:31.970Z,13.15
2019-01-31T01:38:48.524Z,13.50
2019-01-31T01:40:05.001Z,9.05
2019-01-31T01:41:21.800Z,18.48
2019-01-31T01:42:38.355Z,18.85
2019-01-31T01:43:54.530Z,16.65
2019-01-31T01:45:22.179Z,11.88
2019-01-31T01:46:38.682Z,14.18
2019-01-31T01:47:54.876Z,15.83
2019-01-31T01:49:11.311Z,10.05
2019-01-31T01:50:27.518Z,18.10
2019-01-31T01:51:43.687Z,15.83
2019-01-31T01:52:59.830Z,19.80
2019-01-31T01:54:16.184Z,10.68
2019-01-31T01:55:32.058Z,12.60
2019-01-31T01:56:48.339Z,6.80
2019-01-31T01:59:58.566Z,13.15
2019-01-31T02:01:14.827Z,11.22
2019-01-31T02:02:30.866Z,11.50
2019-01-31T02:03:46.792Z,16.77
2019-01-31T02:05:03.306Z,13.38
2019-01-31T02:06:19.301Z,16.70
2019-01-31T02:07:35.608Z,13.65
2019-01-31T02:08:51.744Z,13.13
2019-01-31T02:10:08.076Z,10.45
2019-01-31T02:11:24.358Z,16.90
2019-01-31T02:12:40.674Z,13.80
2019-01-31T02:13:56.927Z,10.70
2019-01-31T02:15:30.681Z,9.98
2019-01-31T02:16:36.969Z,11.88
2019-01-31T02:17:53.352Z,14.95
2019-01-31T02:19:09.683Z,18.17
2019-01-31T02:20:25.757Z,18.80
2019-01-31T02:21:41.695Z,15.98
2019-01-31T02:22:58.026Z,8.65
2019-01-31T02:24:14.710Z,12.75
2019-01-31T02:25:30.652Z,22.25
2019-01-31T02:26:46.860Z,16.93
2019-01-31T02:28:03.378Z,14.87
2019-01-31T02:29:20.106Z,20.62
2019-01-31T02:30:36.138Z,13.93
2019-01-31T02:31:52.425Z,14.80
2019-01-31T02:33:08.370Z,18.10
2019-01-31T02:34:24.533Z,20.50
2019-01-31T02:35:40.575Z,17.55
2019-01-31T02:36:56.962Z,14.18
2019-01-31T02:38:13.395Z,12.65
2019-01-31T02:39:29.329Z,15.48
2019-01-31T02:40:45.170Z,15.30
2019-01-31T02:42:01.644Z,12.45
2019-01-31T02:43:18.054Z,9.70
2019-01-31T02:44:34.219Z,7.22
2019-01-31T02:45:50.302Z,14.45
2019-01-31T02:47:06.637Z,8.88
2019-01-31T02:48:23.085Z,10.58
2019-01-31T02:49:39.459Z,9.65
2019-01-31T02:50:55.603Z,16.90
2019-01-31T02:52:11.804Z,11.43
2019-01-31T02:53:27.887Z,19.77
2019-01-31T02:54:44.568Z,21.20
2019-01-31T02:56:00.492Z,16.20
2019-01-31T02:58:40.838Z,24.85
2019-01-31T02:59:57.673Z,34.30
2019-01-31T03:01:13.563Z,22.27
2019-01-31T03:02:30.073Z,31.07
2019-01-31T03:03:49.486Z,33.92
2019-01-31T03:05:05.531Z,17.25
2019-01-31T03:06:21.791Z,31.85
2019-01-31T03:07:38.234Z,35.48
2019-01-31T03:08:54.233Z,19.80
2019-01-31T03:10:10.227Z,29.50
2019-01-31T03:11:26.472Z,36.20
2019-01-31T03:12:42.767Z,48.35
2019-01-31T03:14:09.866Z,39.20
2019-01-31T03:15:16.940Z,54.90
2019-01-31T03:16:33.240Z,31.57
2019-01-31T03:17:49.594Z,37.20
2019-01-31T03:19:06.342Z,27.58
2019-01-31T03:21:03.459Z,24.23
2019-01-31T03:22:33.421Z,12.18
2019-01-31T03:23:49.428Z,16.90
2019-01-31T03:25:05.743Z,12.75
2019-01-31T03:26:21.841Z,13.25
2019-01-31T03:27:38.607Z,17.02
2019-01-31T03:28:54.705Z,18.65
2019-01-31T03:30:10.746Z,14.20
2019-01-31T03:31:26.805Z,17.95
2019-01-31T03:32:43.546Z,21.27
2019-01-31T03:33:59.793Z,15.58
2019-01-31T03:35:15.962Z,13.88
2019-01-31T03:36:32.363Z,20.60
2019-01-31T03:37:48.185Z,23.67
2019-01-31T03:39:05.289Z,12.80
2019-01-31T03:40:21.313Z,14.03
2019-01-31T03:41:37.373Z,12.18
2019-01-31T03:42:54.158Z,20.72
2019-01-31T03:44:10.291Z,13.45
2019-01-31T03:45:26.576Z,15.60
2019-01-31T03:46:42.562Z,17.12
2019-01-31T03:47:58.753Z,10.80
2019-01-31T03:49:15.301Z,15.35
2019-01-31T03:50:31.205Z,19.15
2019-01-31T03:51:47.361Z,19.70
2019-01-31T03:53:03.550Z,15.55
2019-01-31T03:54:19.896Z,12.90
2019-01-31T03:55:35.769Z,14.18
2019-01-31T03:56:51.977Z,17.60
2019-01-31T03:58:08.261Z,21.25
2019-01-31T03:59:25.129Z,41.53
2019-01-31T04:00:41.177Z,36.77
2019-01-31T04:01:57.231Z,36.65
2019-01-31T04:03:13.409Z,37.40
2019-01-31T04:04:29.717Z,22.42
2019-01-31T04:05:46.078Z,26.77
2019-01-31T04:07:02.340Z,21.27
2019-01-31T04:08:20.720Z,18.42
2019-01-31T04:09:37.659Z,16.80
2019-01-31T04:10:53.777Z,13.68
2019-01-31T04:12:09.842Z,15.95
2019-01-31T04:13:26.541Z,15.95
2019-01-31T04:14:43.604Z,13.78
2019-01-31T04:16:00.423Z,17.05
2019-01-31T04:17:16.508Z,14.73
2019-01-31T04:18:32.970Z,18.87
2019-01-31T04:19:49.119Z,22.87
2019-01-31T04:21:05.067Z,12.70
2019-01-31T04:22:21.308Z,17.57
2019-01-31T04:23:37.435Z,15.70
2019-01-31T04:24:53.771Z,22.95
2019-01-31T04:26:10.712Z,12.88
2019-01-31T04:27:26.867Z,9.98
2019-01-31T04:28:42.651Z,14.95
2019-01-31T04:29:58.682Z,11.65
2019-01-31T04:31:15.153Z,18.37
2019-01-31T04:32:31.361Z,10.93
2019-01-31T04:33:47.526Z,13.68
2019-01-31T04:35:03.917Z,15.78
2019-01-31T04:36:20.800Z,16.97
2019-01-31T04:37:37.425Z,24.75
2019-01-31T04:38:53.652Z,18.35
2019-01-31T04:40:08.687Z,16.70
2019-01-31T04:41:24.830Z,14.35
2019-01-31T04:42:41.052Z,17.80
2019-01-31T04:43:56.868Z,19.15
2019-01-31T04:45:12.141Z,22.32
2019-01-31T04:46:28.150Z,20.32
2019-01-31T04:47:44.337Z,18.90
2019-01-31T04:49:00.489Z,19.15
2019-01-31T04:50:16.803Z,15.78
2019-01-31T04:51:31.881Z,12.75
2019-01-31T04:52:55.807Z,16.10
2019-01-31T04:54:00.566Z,16.70
2019-01-31T04:55:05.708Z,22.05
2019-01-31T04:56:10.570Z,14.30
2019-01-31T04:57:15.347Z,12.35
2019-01-31T04:58:20.519Z,19.57
2019-01-31T04:59:25.195Z,13.28
2019-01-31T05:00:30.088Z,14.47
2019-01-31T05:01:34.940Z,13.98
2019-01-31T05:02:39.660Z,15.85
2019-01-31T05:05:31.472Z,10.32
2019-01-31T05:06:47.603Z,15.28
2019-01-31T05:08:03.611Z,15.25
2019-01-31T05:09:19.756Z,14.00
2019-01-31T05:10:55.624Z,13.80
2019-01-31T05:12:02.286Z,11.48
2019-01-31T05:13:18.614Z,14.68
2019-01-31T05:14:34.972Z,17.07
2019-01-31T05:15:51.015Z,12.63
2019-01-31T05:17:06.966Z,14.50
2019-01-31T05:18:23.111Z,13.15
2019-01-31T05:21:47.160Z,11.93
2019-01-31T05:22:30.297Z,12.00
2019-01-31T05:23:54.035Z,10.43
2019-01-31T05:25:10.032Z,20.15
2019-01-31T05:26:26.385Z,12.78
2019-01-31T05:27:31.140Z,14.50
2019-01-31T05:28:35.778Z,11.35
2019-01-31T05:29:40.739Z,7.95
2019-01-31T05:30:45.426Z,10.45
2019-01-31T05:33:46.188Z,19.25
2019-01-31T05:36:26.565Z,16.82
2019-01-31T05:39:35.659Z,10.28
2019-01-31T05:42:54.124Z,8.63
2019-01-31T05:44:12.913Z,17.70
2019-01-31T05:47:34.208Z,17.67
2019-01-31T05:48:51.088Z,9.85
2019-01-31T05:50:08.263Z,15.50
2019-01-31T05:51:24.996Z,12.13
2019-01-31T05:52:46.751Z,13.95
2019-01-31T05:54:03.375Z,13.68
2019-01-31T05:55:45.516Z,11.22
2019-01-31T05:56:48.423Z,10.93
2019-01-31T05:58:07.415Z,10.98
2019-01-31T05:59:24.195Z,18.73
2019-01-31T06:00:42.253Z,8.78
2019-01-31T06:02:02.498Z,22.48
2019-01-31T06:03:19.599Z,81.95
2019-01-31T06:04:54.000Z,41.00
2019-01-31T06:06:28.645Z,26.55
2019-01-31T06:11:07.128Z,18.27
2019-01-31T06:12:06.930Z,28.50
2019-01-31T06:15:08.202Z,11.70
2019-01-31T06:16:25.176Z,18.90
2019-01-31T06:17:41.304Z,14.45
2019-01-31T06:18:58.429Z,14.55
2019-01-31T06:23:18.991Z,16.07
2019-01-31T06:24:34.949Z,21.30
2019-01-31T06:25:53.640Z,12.37
2019-01-31T06:27:10.621Z,14.75
2019-01-31T06:28:30.966Z,14.50
2019-01-31T06:29:46.967Z,11.63
2019-01-31T06:31:03.058Z,10.80
2019-01-31T06:32:19.031Z,12.15
2019-01-31T06:33:38.067Z,16.12
2019-01-31T06:34:55.638Z,15.30
2019-01-31T06:36:17.272Z,14.73
2019-01-31T06:37:35.752Z,12.45
2019-01-31T06:40:10.298Z,8.85
2019-01-31T06:41:28.245Z,12.40
2019-01-31T06:42:45.802Z,15.50
2019-01-31T06:44:02.418Z,9.13
2019-01-31T06:45:19.132Z,13.85
2019-01-31T06:46:36.429Z,10.10
2019-01-31T06:48:10.059Z,15.72
2019-01-31T06:49:16.020Z,17.32
2019-01-31T06:50:32.186Z,15.03
2019-01-31T06:51:49.761Z,9.95
2019-01-31T06:53:08.349Z,12.88
2019-01-31T06:54:24.835Z,14.63
2019-01-31T06:55:42.289Z,18.32
2019-01-31T06:56:58.883Z,17.12
2019-01-31T06:58:14.840Z,23.83
2019-01-31T06:59:31.461Z,14.18
2019-01-31T07:00:48.150Z,14.95
2019-01-31T07:02:04.405Z,17.20
2019-01-31T07:03:20.743Z,17.42
2019-01-31T07:04:40.111Z,18.27
2019-01-31T07:05:56.848Z,11.48
2019-01-31T07:07:12.700Z,10.68
2019-01-31T07:08:29.058Z,12.73
2019-01-31T07:09:45.475Z,16.25
2019-01-31T07:11:02.202Z,19.23
2019-01-31T07:12:19.157Z,20.00
2019-01-31T07:13:35.914Z,21.70
2019-01-31T07:14:52.554Z,13.50
2019-01-31T07:16:08.615Z,10.48
2019-01-31T07:17:24.622Z,18.92
2019-01-31T07:18:41.444Z,14.00
2019-01-31T07:19:58.393Z,17.77
2019-01-31T07:21:16.674Z,22.90
2019-01-31T07:22:33.337Z,35.73
2019-01-31T07:23:49.528Z,32.28
2019-01-31T07:25:05.948Z,22.32
2019-01-31T07:26:22.598Z,21.70
2019-01-31T07:27:39.349Z,22.22
2019-01-31T07:29:17.869Z,24.80
2019-01-31T07:30:21.248Z,19.32
2019-01-31T07:31:37.219Z,15.98
2019-01-31T07:32:53.579Z,33.40
2019-01-31T07:34:12.247Z,53.50
2019-01-31T07:35:28.551Z,45.10
2019-01-31T07:36:46.023Z,31.37
2019-01-31T07:38:01.954Z,22.20
2019-01-31T07:39:18.206Z,19.23
2019-01-31T07:40:34.628Z,16.95
2019-01-31T07:41:51.196Z,28.47
2019-01-31T07:44:43.230Z,36.93
2019-01-31T07:45:59.935Z,52.80
2019-01-31T07:47:19.723Z,32.23
2019-01-31T07:48:35.885Z,15.10
2019-01-31T07:49:54.669Z,18.75
2019-01-31T07:51:11.191Z,29.05
2019-01-31T07:52:27.256Z,39.65
2019-01-31T07:53:44.818Z,69.92
2019-01-31T07:55:02.034Z,61.65
2019-01-31T07:56:18.232Z,119.55
2019-01-31T07:57:35.571Z,119.47
2019-01-31T07:58:52.131Z,37.55
2019-01-31T08:00:08.945Z,22.70
2019-01-31T08:01:25.207Z,42.48
2019-01-31T08:03:08.709Z,48.92
2019-01-31T08:05:41.923Z,36.95
2019-01-31T08:06:58.823Z,74.77
2019-01-31T08:11:19.740Z,42.23
2019-01-31T08:12:38.442Z,48.30
2019-01-31T08:14:25.503Z,34.33
2019-01-31T08:17:31.099Z,19.05
2019-01-31T08:19:18.765Z,22.82
2019-01-31T08:20:27.089Z,19.10
2019-01-31T08:21:46.868Z,31.70
2019-01-31T08:23:03.506Z,16.57
2019-01-31T08:24:20.432Z,14.87
2019-01-31T08:25:37.253Z,19.15
2019-01-31T08:26:55.926Z,14.40
2019-01-31T08:29:29.325Z,16.55
2019-01-31T08:30:47.127Z,19.80
2019-01-31T08:32:03.751Z,15.35
2019-01-31T08:33:19.753Z,18.32
2019-01-31T08:34:35.879Z,20.65
2019-01-31T08:35:52.177Z,16.23
2019-01-31T08:37:08.298Z,20.82
2019-01-31T08:38:24.595Z,13.90
2019-01-31T08:39:43.618Z,24.40
2019-01-31T08:41:00.164Z,19.82
2019-01-31T08:42:16.095Z,21.35
2019-01-31T08:43:33.178Z,18.40
2019-01-31T08:44:50.521Z,28.12
2019-01-31T08:46:07.191Z,16.35
2019-01-31T08:47:23.521Z,25.12
2019-01-31T08:48:39.501Z,14.10
2019-01-31T08:49:58.905Z,13.43
2019-01-31T08:51:15.010Z,15.75
2019-01-31T08:52:31.222Z,12.58
2019-01-31T08:53:47.744Z,16.30
2019-01-31T08:55:03.604Z,24.47
2019-01-31T08:56:19.750Z,17.35
2019-01-31T08:57:38.105Z,17.90
2019-01-31T09:00:11.501Z,12.18
2019-01-31T09:01:28.303Z,13.60
2019-01-31T09:02:45.029Z,21.20
2019-01-31T09:04:02.195Z,18.55
2019-01-31T09:05:18.906Z,18.23
2019-01-31T09:06:35.018Z,18.92
2019-01-31T09:07:51.402Z,18.20
2019-01-31T09:09:08.513Z,17.17
2019-01-31T09:10:26.764Z,16.30
2019-01-31T09:11:42.936Z,15.88
2019-01-31T09:12:59.001Z,17.42
2019-01-31T09:14:15.400Z,15.35
2019-01-31T09:15:32.322Z,20.57
2019-01-31T09:16:48.708Z,16.87
2019-01-31T09:18:05.125Z,15.03
2019-01-31T09:19:21.519Z,14.05
2019-01-31T09:20:40.822Z,16.15
2019-01-31T09:21:59.819Z,22.50
2019-01-31T09:23:16.553Z,14.20
2019-01-31T09:24:35.708Z,19.37
2019-01-31T09:25:52.337Z,17.70
2019-01-31T09:29:28.687Z,20.82
2019-01-31T09:30:46.877Z,15.93
2019-01-31T09:32:03.723Z,23.25
2019-01-31T09:34:46.962Z,40.17
2019-01-31T09:36:03.233Z,17.75
2019-01-31T09:38:54.832Z,23.00
2019-01-31T09:40:11.153Z,18.40
2019-01-31T09:41:27.458Z,25.65
2019-01-31T09:42:43.789Z,23.77
2019-01-31T09:44:23.326Z,21.62
2019-01-31T09:46:06.069Z,37.70
2019-01-31T09:47:23.073Z,25.40
2019-01-31T09:48:41.656Z,20.32
2019-01-31T09:49:58.350Z,20.27
2019-01-31T09:51:14.802Z,19.05
2019-01-31T09:52:36.449Z,22.60
2019-01-31T09:54:19.367Z,19.65
2019-01-31T09:57:36.956Z,20.60
2019-01-31T09:58:55.968Z,30.75
2019-01-31T10:00:12.261Z,26.62
2019-01-31T10:01:28.713Z,28.20
2019-01-31T10:02:45.236Z,23.25
2019-01-31T10:04:01.816Z,29.85
2019-01-31T10:05:17.865Z,25.43
2019-01-31T10:06:36.544Z,21.33
2019-01-31T10:07:53.078Z,20.35
2019-01-31T10:09:09.605Z,29.02
2019-01-31T10:11:06.071Z,21.93
2019-01-31T10:12:38.934Z,21.55
2019-01-31T10:13:59.931Z,21.52
2019-01-31T10:15:17.219Z,20.30
2019-01-31T10:16:33.752Z,25.15
2019-01-31T10:17:50.580Z,21.48
2019-01-31T10:19:07.126Z,19.55
2019-01-31T10:20:23.211Z,18.40
2019-01-31T10:21:39.827Z,20.50
2019-01-31T10:22:56.181Z,16.60
2019-01-31T10:24:16.100Z,18.17
2019-01-31T10:25:31.795Z,17.02
2019-01-31T10:26:48.076Z,15.83
2019-01-31T10:28:04.256Z,19.20
2019-01-31T10:29:20.211Z,14.70
2019-01-31T10:30:38.013Z,13.90
2019-01-31T10:31:54.522Z,10.85
2019-01-31T10:33:10.810Z,14.63
2019-01-31T10:36:12.601Z,14.00
2019-01-31T10:37:29.348Z,14.78
2019-01-31T10:38:46.185Z,18.25
2019-01-31T10:40:03.188Z,25.37
2019-01-31T10:41:21.702Z,15.83
2019-01-31T10:43:11.260Z,15.68
2019-01-31T10:44:30.342Z,13.00
2019-01-31T10:45:46.542Z,19.73
2019-01-31T10:47:02.915Z,16.48
2019-01-31T10:48:19.007Z,18.65
2019-01-31T10:49:35.258Z,16.23
2019-01-31T10:50:51.645Z,13.85
2019-01-31T10:52:10.310Z,11.10
2019-01-31T10:53:29.285Z,22.52
2019-01-31T10:54:46.206Z,12.18
2019-01-31T10:56:03.283Z,12.78
2019-01-31T10:57:21.532Z,19.32
2019-01-31T10:58:39.151Z,13.55
2019-01-31T10:59:55.315Z,11.53
2019-01-31T11:01:12.084Z,16.15
2019-01-31T11:02:28.617Z,17.62
2019-01-31T11:03:45.197Z,13.60
2019-01-31T11:05:01.188Z,11.68
2019-01-31T11:06:17.562Z,12.55
2019-01-31T11:07:36.183Z,18.45
2019-01-31T11:08:53.169Z,15.75
2019-01-31T11:10:09.620Z,14.38
2019-01-31T11:13:51.722Z,48.28
2019-01-31T11:15:28.415Z,39.48
2019-01-31T11:16:34.374Z,62.20
2019-01-31T11:17:51.189Z,23.00
2019-01-31T11:19:12.422Z,34.30
2019-01-31T11:20:26.169Z,20.35
2019-01-31T11:22:17.233Z,71.65
2019-01-31T11:24:10.771Z,31.45
2019-01-31T11:27:33.941Z,37.23
2019-01-31T11:28:53.282Z,29.95
2019-01-31T11:30:09.836Z,20.72
2019-01-31T11:31:29.537Z,22.37
2019-01-31T11:34:40.971Z,22.95
2019-01-31T11:35:57.939Z,16.80
2019-01-31T11:37:14.845Z,19.52
2019-01-31T11:38:30.747Z,20.32
2019-01-31T11:39:51.101Z,13.62
2019-01-31T11:41:08.201Z,19.98
2019-01-31T11:42:24.287Z,15.55
2019-01-31T11:43:40.413Z,16.77
2019-01-31T11:44:56.652Z,17.25
2019-01-31T11:46:30.523Z,16.10
2019-01-31T11:47:36.751Z,19.95
2019-01-31T11:48:52.681Z,19.45
2019-01-31T11:50:09.284Z,18.37
2019-01-31T11:51:25.432Z,21.35
2019-01-31T11:52:42.283Z,18.32
2019-01-31T11:54:30.306Z,13.45
2019-01-31T11:56:26.980Z,16.57
2019-01-31T11:57:58.973Z,16.62
2019-01-31T11:59:15.094Z,27.55
2019-01-31T12:01:57.040Z,44.48
2019-01-31T12:08:15.253Z,19.35
2019-01-31T12:09:39.225Z,20.82
2019-01-31T12:12:35.371Z,23.73
2019-01-31T12:13:40.279Z,23.52
2019-01-31T12:16:23.191Z,22.48
2019-01-31T12:17:46.907Z,19.77
2019-01-31T12:19:11.044Z,20.17
2019-01-31T12:25:03.096Z,16.65
2019-01-31T12:56:15.817Z,46.42
2019-01-31T13:05:20.808Z,37.08
2019-01-31T13:07:51.238Z,33.02
2019-01-31T13:10:24.875Z,24.77
2019-01-31T13:11:43.265Z,31.20
2019-01-31T13:15:13.086Z,20.92
2019-01-31T13:16:14.702Z,23.15
2019-01-31T13:22:54.795Z,26.62
2019-01-31T13:24:15.175Z,22.95
2019-01-31T13:27:27.095Z,22.82
2019-01-31T13:28:44.326Z,26.82
2019-01-31T13:30:18.957Z,27.20
2019-01-31T13:31:23.826Z,25.10
2019-01-31T13:32:43.853Z,26.90
2019-01-31T13:35:53.052Z,28.05
2019-01-31T13:37:10.717Z,20.50
2019-01-31T13:38:29.931Z,21.45
2019-01-31T13:39:51.251Z,26.93
2019-01-31T13:41:12.927Z,21.27
2019-01-31T13:42:39.094Z,25.60
2019-01-31T13:43:58.065Z,30.85
2019-01-31T13:45:18.493Z,30.77
2019-01-31T13:46:37.368Z,61.95
2019-01-31T13:47:59.506Z,69.90
2019-01-31T13:49:18.500Z,41.85
2019-01-31T13:50:38.715Z,23.77
2019-01-31T13:51:57.374Z,30.90
2019-01-31T13:53:18.209Z,32.55
2019-01-31T13:54:38.474Z,30.43
2019-01-31T13:56:08.997Z,35.28
2019-01-31T13:57:22.102Z,26.12
2019-01-31T13:58:31.268Z,24.85
2019-01-31T13:59:40.237Z,22.85
2019-01-31T14:02:40.733Z,37.88
2019-01-31T14:04:15.218Z,40.55
2019-01-31T14:05:39.746Z,24.63
2019-01-31T14:07:09.477Z,39.83
2019-01-31T14:12:45.078Z,35.80
2019-01-31T14:16:06.782Z,61.50
2019-01-31T14:17:25.194Z,51.45
2019-01-31T14:20:18.430Z,47.83
2019-01-31T14:21:38.303Z,44.38
2019-01-31T14:29:11.737Z,54.88
2019-01-31T14:30:33.578Z,49.23
2019-01-31T14:31:55.605Z,34.03
2019-01-31T14:34:52.694Z,35.70
2019-01-31T14:36:30.480Z,33.38
2019-01-31T14:41:20.850Z,34.38
2019-01-31T14:44:23.136Z,29.23
2019-01-31T14:45:34.681Z,31.77
2019-01-31T14:46:55.484Z,30.27
2019-01-31T14:50:09.167Z,48.15
2019-01-31T14:59:28.195Z,46.25
2019-01-31T15:00:47.884Z,38.28
2019-01-31T15:08:43.548Z,46.02
2019-01-31T15:14:31.483Z,49.75
2019-01-31T15:17:49.637Z,41.85
2019-01-31T15:20:34.521Z,42.50
2019-01-31T15:25:07.211Z,47.17
2019-01-31T15:25:44.448Z,49.23
2019-01-31T15:26:49.217Z,49.80
2019-01-31T15:27:54.198Z,44.08
2019-01-31T15:29:03.894Z,48.42
2019-01-31T15:30:16.960Z,52.20
2019-01-31T15:31:24.275Z,47.80
2019-01-31T15:32:32.921Z,49.60
2019-01-31T15:33:37.730Z,53.87
2019-01-31T15:34:43.770Z,51.18
2019-01-31T15:35:53.332Z,50.12
2019-01-31T15:37:02.094Z,50.78
2019-01-31T15:38:06.549Z,50.30
2019-01-31T15:39:33.075Z,60.65
2019-01-31T15:40:40.860Z,43.02
2019-01-31T15:41:47.446Z,45.40
2019-01-31T15:43:00.303Z,47.13
2019-01-31T15:44:14.204Z,49.18
2019-01-31T15:45:16.681Z,52.98
2019-01-31T15:46:21.691Z,46.98
2019-01-31T15:47:26.800Z,48.65
2019-01-31T15:48:31.790Z,43.87
2019-01-31T15:49:39.484Z,45.83
2019-01-31T15:50:44.231Z,43.00
2019-01-31T15:51:55.193Z,31.73
2019-01-31T15:53:03.729Z,40.38
2019-01-31T15:54:08.849Z,37.65
2019-01-31T15:55:17.448Z,32.58
2019-01-31T15:56:25.335Z,46.63
2019-01-31T15:57:30.286Z,36.15
2019-01-31T15:58:39.488Z,29.70
2019-01-31T16:00:00.936Z,36.95
2019-01-31T16:03:00.695Z,34.20
2019-01-31T16:03:49.232Z,29.10
2019-01-31T16:07:05.857Z,31.90
2019-01-31T16:08:06.559Z,41.18
2019-01-31T16:09:43.916Z,37.65
2019-01-31T16:12:25.107Z,34.63
2019-01-31T16:13:44.686Z,37.80
2019-01-31T16:20:14.626Z,49.65
2019-01-31T16:21:31.058Z,110.48
2019-01-31T16:22:47.817Z,126.45
2019-01-31T16:25:07.583Z,46.25
2019-01-31T16:26:54.451Z,40.17
2019-01-31T16:29:45.308Z,32.00
2019-01-31T16:36:21.150Z,33.48
2019-01-31T16:37:29.235Z,38.20
2019-01-31T16:40:42.283Z,22.80
2019-01-31T16:41:36.678Z,24.12
2019-01-31T16:43:03.618Z,30.97
2019-01-31T16:44:20.320Z,26.90
2019-01-31T16:46:55.794Z,49.73
2019-01-31T16:49:00.422Z,33.10
2019-01-31T16:50:07.145Z,27.75
2019-01-31T16:51:17.097Z,27.35
2019-01-31T16:52:28.085Z,28.92
2019-01-31T16:53:35.104Z,30.48
2019-01-31T16:54:39.854Z,24.30
2019-01-31T16:55:44.948Z,28.10
2019-01-31T16:56:50.193Z,32.65
2019-01-31T16:57:58.690Z,21.95
2019-01-31T16:59:23.690Z,23.98
2019-01-31T17:00:40.446Z,24.30
2019-01-31T17:01:42.849Z,25.52
2019-01-31T17:02:57.640Z,24.05
2019-01-31T17:04:02.771Z,26.37
2019-01-31T17:05:11.693Z,25.57
2019-01-31T17:06:17.261Z,27.17
2019-01-31T17:07:25.411Z,26.20
2019-01-31T17:08:30.193Z,28.10
2019-01-31T17:09:39.380Z,28.98
2019-01-31T17:10:44.546Z,22.55
2019-01-31T17:11:50.157Z,25.30
2019-01-31T17:12:56.690Z,28.57
2019-01-31T17:14:02.236Z,26.15
2019-01-31T17:15:18.128Z,26.95
2019-01-31T17:16:32.790Z,28.07
2019-01-31T17:17:43.198Z,28.80
2019-01-31T17:18:48.707Z,30.40
2019-01-31T17:19:53.456Z,25.60
2019-01-31T17:21:04.212Z,24.65
2019-01-31T17:22:19.580Z,32.90
2019-01-31T17:23:24.396Z,29.18
2019-01-31T17:24:38.068Z,29.95
2019-01-31T17:25:43.194Z,26.90
2019-01-31T17:26:58.269Z,24.37
2019-01-31T17:28:01.704Z,28.75
2019-01-31T17:29:09.263Z,27.58
2019-01-31T17:30:19.400Z,25.20
2019-01-31T17:31:30.252Z,23.38
2019-01-31T17:32:42.811Z,28.55
2019-01-31T17:33:51.471Z,28.10
2019-01-31T17:34:59.912Z,43.95
2019-01-31T17:36:05.039Z,31.10
2019-01-31T17:37:10.108Z,29.02
2019-01-31T17:38:17.226Z,31.77
2019-01-31T17:39:22.855Z,31.73
2019-01-31T17:40:35.324Z,23.75
2019-01-31T17:41:40.216Z,25.62
2019-01-31T17:42:49.319Z,22.45
2019-01-31T17:43:54.608Z,24.07
2019-01-31T17:45:09.423Z,28.75
2019-01-31T17:46:16.242Z,22.77
2019-01-31T17:47:21.809Z,20.52
2019-01-31T17:48:28.691Z,23.70
2019-01-31T17:49:38.839Z,20.25
2019-01-31T17:50:45.825Z,27.62
2019-01-31T17:51:50.690Z,25.00
2019-01-31T17:52:55.595Z,25.43
2019-01-31T17:54:02.027Z,26.80
2019-01-31T17:55:07.803Z,20.85
2019-01-31T17:56:15.361Z,32.00
2019-01-31T17:57:20.552Z,25.08
2019-01-31T17:58:28.175Z,21.62
2019-01-31T17:59:33.248Z,22.50
2019-01-31T18:00:45.495Z,23.95
2019-01-31T18:01:55.189Z,23.70
2019-01-31T18:02:58.483Z,21.62
2019-01-31T18:04:05.181Z,20.30
2019-01-31T18:05:19.820Z,20.17
2019-01-31T18:06:27.382Z,26.70
2019-01-31T18:07:39.860Z,19.27
2019-01-31T18:12:27.093Z,23.18
2019-01-31T18:13:41.395Z,25.00
2019-01-31T18:14:55.848Z,22.65
2019-01-31T18:16:03.097Z,19.92
2019-01-31T18:17:14.162Z,25.32
2019-01-31T18:18:21.846Z,18.60
2019-01-31T18:19:31.410Z,20.75
2019-01-31T18:20:35.802Z,21.50
2019-01-31T18:21:43.501Z,22.77
2019-01-31T18:22:48.853Z,17.70
2019-01-31T18:23:57.080Z,21.80
2019-01-31T18:25:13.838Z,20.88
2019-01-31T18:26:23.034Z,23.98
2019-01-31T18:27:35.096Z,20.65
2019-01-31T18:29:02.138Z,20.97
2019-01-31T18:30:14.682Z,20.50
2019-01-31T18:31:21.177Z,19.50
2019-01-31T18:32:32.659Z,33.73
2019-01-31T18:33:37.869Z,22.80
2019-01-31T18:34:48.239Z,22.00
2019-01-31T18:36:04.095Z,19.20
2019-01-31T18:37:15.094Z,20.17
2019-01-31T18:38:29.118Z,21.05
2019-01-31T18:39:47.818Z,23.25
2019-01-31T18:40:57.741Z,21.25
2019-01-31T18:42:04.274Z,25.00
2019-01-31T18:43:13.613Z,23.70
2019-01-31T18:44:18.786Z,17.55
2019-01-31T18:45:26.499Z,19.00
2019-01-31T18:46:31.223Z,22.25
2019-01-31T18:47:36.789Z,21.50
2019-01-31T18:48:45.517Z,18.70
2019-01-31T18:50:02.349Z,18.25
2019-01-31T18:51:16.087Z,18.67
2019-01-31T18:52:24.601Z,15.25
2019-01-31T18:53:31.138Z,16.25
2019-01-31T18:54:36.379Z,23.15
2019-01-31T18:55:40.591Z,20.97
2019-01-31T18:56:48.976Z,19.65
2019-01-31T18:58:02.563Z,17.73
2019-01-31T18:59:16.587Z,18.57
2019-01-31T19:00:28.619Z,21.27
2019-01-31T19:01:54.364Z,23.38
2019-01-31T19:03:04.131Z,17.73
2019-01-31T19:04:39.189Z,15.93
2019-01-31T19:06:07.184Z,19.17
2019-01-31T19:07:34.416Z,19.00
2019-01-31T19:08:42.012Z,16.82
2019-01-31T19:09:52.405Z,17.37
2019-01-31T19:11:04.152Z,21.02
2019-01-31T19:12:24.439Z,19.45
2019-01-31T19:13:31.517Z,15.03
2019-01-31T19:14:40.644Z,13.62
2019-01-31T19:15:46.716Z,16.23
2019-01-31T19:17:19.479Z,14.35
2019-01-31T19:18:24.352Z,18.05
2019-01-31T19:19:30.830Z,18.12
2019-01-31T19:20:44.419Z,16.40
2019-01-31T19:21:48.968Z,20.82
2019-01-31T19:23:05.384Z,17.85
2019-01-31T19:24:20.688Z,16.48
2019-01-31T19:25:34.191Z,13.45
2019-01-31T19:26:46.255Z,14.58
2019-01-31T19:27:57.851Z,13.70
2019-01-31T19:29:10.556Z,19.77
2019-01-31T19:30:19.711Z,15.18
2019-01-31T19:31:35.108Z,15.32
2019-01-31T19:32:43.343Z,19.02